Time;durP1;ratioP1;P1;durP2;ratioP2;P2;SDS_P1;SDS_P2;PMS_P1;PMS_P2;Temp;Humidity;BMP_temperature;BMP_pressure;BME280_temperature;BME280_humidity;BME280_pressure;Samples;Min_cycle;Max_cycle;Signal;HPM_P1;HPM_P2
2023/06/19 00:03:11;;;;;;;10.50;9.80;;;;;;;15.54;61.37;100817.77;104895;1292;76111;-89
2023/06/19 00:05:59;;;;;;;10.10;9.40;;;;;;;15.44;61.54;100813.56;104940;1292;67197;-89
2023/06/19 00:09:11;;;;;;;9.60;8.70;;;;;;;15.45;61.70;100815.27;104901;1294;71351;-89
2023/06/19 00:12:25;;;;;;;9.40;8.70;;;;;;;15.45;61.66;100812.98;104993;1293;61250;-89
2023/06/19 00:15:51;;;;;;;9.60;8.90;;;;;;;15.46;61.55;100813.14;105129;1296;61204;-90
2023/06/19 00:19:37;;;;;;;9.50;8.80;;;;;;;15.43;61.53;100808.02;105011;1292;74340;-90
2023/06/19 00:23:11;;;;;;;12.00;11.00;;;;;;;15.42;61.61;100806.83;104910;1293;67218;-89
2023/06/19 00:26:34;;;;;;;11.70;10.70;;;;;;;15.35;61.78;100802.05;105007;1294;71429;-89
2023/06/19 00:30:05;;;;;;;13.30;11.60;;;;;;;15.28;61.76;100801.41;105109;1288;61309;-90
2023/06/19 00:33:19;;;;;;;12.00;11.10;;;;;;;15.16;61.89;100796.93;104841;1294;61654;-90
2023/06/19 00:36:49;;;;;;;13.50;10.60;;;;;;;15.12;62.06;100793.58;104879;1295;73404;-89
2023/06/19 00:40:35;;;;;;;11.70;10.90;;;;;;;15.11;62.09;100791.89;104415;1299;68611;-90
2023/06/19 00:44:09;;;;;;;10.10;9.20;;;;;;;15.06;62.11;100787.55;104391;1299;71083;-89
2023/06/19 00:47:25;;;;;;;11.20;9.30;;;;;;;15.04;62.12;100784.13;104470;1300;60487;-89
2023/06/19 00:50:50;;;;;;;9.50;8.80;;;;;;;15.03;62.20;100779.13;104381;1300;61086;-89
2023/06/19 00:54:17;;;;;;;10.00;9.30;;;;;;;15.01;62.26;100781.47;104446;1300;73418;-89
2023/06/19 00:57:43;;;;;;;9.60;8.90;;;;;;;15.00;62.18;100780.80;104275;1302;67553;-89
2023/06/19 01:00:58;;;;;;;9.50;8.70;;;;;;;14.98;62.07;100783.11;104385;1299;71241;-89
2023/06/19 01:04:02;;;;;;;9.60;8.80;;;;;;;14.96;62.06;100787.70;104330;1300;61221;-89
2023/06/19 01:07:40;;;;;;;9.50;8.80;;;;;;;14.91;62.07;100786.80;104581;1299;59727;-89
2023/06/19 01:10:49;;;;;;;9.60;8.80;;;;;;;14.89;62.20;100788.06;104981;1292;72317;-89
2023/06/19 01:14:13;;;;;;;12.00;10.90;;;;;;;14.85;62.10;100780.39;105173;1288;67266;-89
2023/06/19 01:17:22;;;;;;;8.60;7.90;;;;;;;14.69;62.15;100779.48;105310;1288;71806;-89
2023/06/19 01:20:38;;;;;;;9.30;8.40;;;;;;;14.60;62.33;100780.96;105329;1289;59850;-89
2023/06/19 01:24:05;;;;;;;9.40;8.70;;;;;;;14.46;62.32;100776.02;105307;1291;61289;-89
2023/06/19 01:26:56;;;;;;;10.80;9.90;;;;;;;14.31;62.50;100775.40;105343;1288;75128;-89
2023/06/19 01:29:51;;;;;;;10.20;9.30;;;;;;;14.29;62.69;100777.55;105177;1288;66124;-89
2023/06/19 01:33:36;;;;;;;10.90;9.90;;;;;;;14.36;62.76;100774.92;105163;1288;72554;-89
2023/06/19 01:36:57;;;;;;;9.10;8.30;;;;;;;14.39;62.66;100774.14;105305;1288;61302;-89
2023/06/19 01:40:24;;;;;;;9.60;8.20;;;;;;;14.38;62.61;100776.77;105317;1288;59907;-89
2023/06/19 01:43:32;;;;;;;8.80;8.00;;;;;;;14.35;62.60;100769.92;105259;1288;74572;-89
2023/06/19 01:46:39;;;;;;;9.40;8.60;;;;;;;14.31;62.69;100772.45;101601;1290;67903;-89
2023/06/19 01:49:28;;;;;;;8.90;8.00;;;;;;;14.34;62.68;100776.71;105508;1288;61367;-88
2023/06/19 01:52:55;;;;;;;9.70;8.40;;;;;;;14.36;62.73;100774.23;105248;1288;59145;-89
2023/06/19 01:55:49;;;;;;;9.60;8.70;;;;;;;14.36;62.69;100777.51;105387;1288;74059;-89
2023/06/19 01:58:57;;;;;;;9.60;8.80;;;;;;;14.35;62.68;100779.45;105196;1291;67263;-89
2023/06/19 02:02:24;;;;;;;9.40;8.70;;;;;;;14.34;62.75;100776.71;105339;1288;70748;-89
2023/06/19 02:05:32;;;;;;;13.40;9.30;;;;;;;14.31;62.63;100771.59;105287;1288;60988;-89
2023/06/19 02:09:19;;;;;;;8.90;8.20;;;;;;;14.29;62.73;100766.11;105323;1288;61697;-89
2023/06/19 02:13:05;;;;;;;7.90;7.20;;;;;;;14.23;62.84;100768.88;105260;1290;75937;-89
2023/06/19 02:16:24;;;;;;;8.70;8.00;;;;;;;14.21;62.76;100771.00;105349;1288;71435;-89
2023/06/19 02:19:12;;;;;;;9.70;8.80;;;;;;;14.15;62.78;100770.47;105218;1288;71388;-89
2023/06/19 02:22:03;;;;;;;10.50;9.60;;;;;;;14.11;62.84;100774.41;105221;1288;61309;-89
2023/06/19 02:25:13;;;;;;;11.40;9.90;;;;;;;14.06;62.91;100784.77;105239;1288;61280;-89
2023/06/19 02:28:28;;;;;;;9.00;8.20;;;;;;;14.05;63.03;100784.27;105300;1291;73304;-89
2023/06/19 02:31:35;;;;;;;9.90;8.90;;;;;;;14.03;62.88;100781.05;105479;1289;67200;-89
2023/06/19 02:35:02;;;;;;;10.50;9.70;;;;;;;13.91;62.84;100783.81;105383;1288;71272;-89
2023/06/19 02:38:48;;;;;;;9.80;9.00;;;;;;;13.86;63.21;100787.59;104577;1297;59452;-90
2023/06/19 02:42:34;;;;;;;8.40;7.70;;;;;;;13.87;63.08;100790.52;104706;1297;61374;-90
2023/06/19 02:46:20;;;;;;;9.00;8.40;;;;;;;13.87;63.00;100787.39;104592;1297;73300;-89
2023/06/19 02:50:07;;;;;;;9.80;8.70;;;;;;;13.85;63.04;100787.45;104555;1300;67193;-90
2023/06/19 02:53:19;;;;;;;10.60;9.40;;;;;;;13.85;63.10;100789.52;104246;1302;71365;-89
2023/06/19 02:56:14;;;;;;;12.20;9.80;;;;;;;13.81;63.14;100790.16;104230;1303;61432;-89
2023/06/19 02:59:01;;;;;;;10.80;10.00;;;;;;;13.83;63.24;100792.02;104226;1302;61756;-89
2023/06/19 03:02:27;;;;;;;10.00;9.10;;;;;;;13.85;63.14;100790.92;104252;1303;72216;-89
2023/06/19 03:05:59;;;;;;;7.90;7.30;;;;;;;13.86;63.22;100792.61;104267;1303;70027;-90
2023/06/19 03:09:11;;;;;;;8.90;8.10;;;;;;;13.89;63.15;100793.06;104315;1303;75223;-89
2023/06/19 03:12:20;;;;;;;8.70;8.10;;;;;;;13.85;63.23;100793.67;104290;1302;61294;-89
2023/06/19 03:15:33;;;;;;;8.00;7.40;;;;;;;13.85;63.31;100792.14;104398;1297;59857;-89
2023/06/19 03:18:39;;;;;;;7.80;7.10;;;;;;;13.90;63.49;100789.56;104661;1296;74780;-89
2023/06/19 03:21:27;;;;;;;8.30;7.60;;;;;;;13.96;63.43;100789.59;104720;1297;68337;-89
2023/06/19 03:24:14;;;;;;;7.30;6.60;;;;;;;13.99;63.34;100787.59;104717;1296;71210;-88
2023/06/19 03:27:26;;;;;;;8.40;7.30;;;;;;;14.02;63.51;100788.06;104666;1296;59330;-89
2023/06/19 03:30:31;;;;;;;8.90;8.10;;;;;;;14.06;63.46;100783.73;104975;1287;61210;-89
2023/06/19 03:33:43;;;;;;;7.60;7.10;;;;;;;14.07;63.49;100781.82;105309;1289;73408;-89
2023/06/19 03:36:43;;;;;;;8.70;8.00;;;;;;;14.12;63.53;100774.89;105181;1289;67093;-89
2023/06/19 03:39:57;;;;;;;9.60;8.80;;;;;;;14.20;63.69;100771.54;105287;1288;71633;-89
2023/06/19 03:43:18;;;;;;;10.30;9.40;;;;;;;14.28;63.64;100775.48;105252;1288;61277;-89
2023/06/19 03:46:50;;;;;;;9.60;8.90;;;;;;;14.29;63.63;100771.65;105311;1288;61867;-89
2023/06/19 03:49:38;;;;;;;9.70;8.80;;;;;;;14.25;63.81;100771.08;105346;1288;75707;-89
2023/06/19 03:52:52;;;;;;;10.00;9.20;;;;;;;14.26;63.94;100771.90;105325;1288;68385;-89
2023/06/19 03:55:59;;;;;;;10.40;8.80;;;;;;;14.27;64.05;100770.15;105228;1288;71145;-89
2023/06/19 03:59:05;;;;;;;11.40;9.70;;;;;;;14.29;64.08;100768.70;104808;1297;61176;-88
2023/06/19 04:02:25;;;;;;;13.00;10.00;;;;;;;14.31;64.18;100775.06;104922;1294;60130;-89
2023/06/19 04:06:12;;;;;;;13.30;9.50;;;;;;;14.35;64.38;100774.61;104930;1294;73249;-91
2023/06/19 04:09:19;;;;;;;10.50;9.40;;;;;;;14.52;64.49;100777.60;97583;1294;10003010;-89
2023/06/19 04:12:07;;;;;;;10.00;9.00;;;;;;;14.72;64.52;100778.36;104788;1293;61228;-89
2023/06/19 04:14:54;;;;;;;10.70;9.70;;;;;;;14.92;64.40;100778.63;104891;1298;59393;-89
2023/06/19 04:17:41;;;;;;;15.60;9.60;;;;;;;15.07;64.47;100781.77;104864;1294;73711;-88
2023/06/19 04:20:29;;;;;;;10.30;9.50;;;;;;;15.17;64.38;100780.22;104829;1293;67413;-89
2023/06/19 04:23:16;;;;;;;10.50;9.40;;;;;;;15.25;64.52;100781.88;104839;1294;73281;-89
2023/06/19 04:26:24;;;;;;;10.80;9.50;;;;;;;15.42;64.70;100783.58;104800;1294;59174;-90
2023/06/19 04:29:39;;;;;;;10.70;9.80;;;;;;;15.76;64.59;100784.34;105066;1288;59437;-90
2023/06/19 04:32:45;;;;;;;13.00;11.70;;;;;;;16.03;64.52;100785.81;105328;1288;73186;-89
2023/06/19 04:35:31;;;;;;;13.30;11.90;;;;;;;16.12;64.54;100787.71;105128;1288;67372;-89
2023/06/19 04:38:17;;;;;;;21.00;12.20;;;;;;;16.22;64.49;100787.37;105201;1288;70379;-90
2023/06/19 04:41:04;;;;;;;14.90;12.80;;;;;;;16.32;64.57;100793.94;105137;1288;59700;-88
2023/06/19 04:43:51;;;;;;;14.30;12.90;;;;;;;16.41;64.68;100794.66;105176;1294;61210;-89
2023/06/19 04:46:38;;;;;;;15.90;12.70;;;;;;;16.50;64.70;100795.01;105225;1288;77377;-88
2023/06/19 04:49:25;;;;;;;13.20;11.80;;;;;;;16.63;64.74;100795.94;105795;1288;67389;-89
2023/06/19 04:52:12;;;;;;;13.40;12.20;;;;;;;16.77;64.84;100794.52;105459;1288;71329;-89
2023/06/19 04:54:59;;;;;;;14.70;13.40;;;;;;;16.94;64.88;100794.91;105183;1289;61197;-89
2023/06/19 04:57:45;;;;;;;13.30;11.90;;;;;;;17.21;65.01;100788.73;105208;1289;59989;-89
2023/06/19 05:00:32;;;;;;;14.10;12.60;;;;;;;17.54;65.09;100789.81;105194;1289;73099;-89
2023/06/19 05:03:22;;;;;;;16.50;12.70;;;;;;;17.98;65.06;100790.38;105274;1288;67288;-89
2023/06/19 05:06:09;;;;;;;15.20;13.50;;;;;;;18.52;64.95;100788.41;105250;1288;71175;-89
2023/06/19 05:08:58;;;;;;;13.90;12.20;;;;;;;19.14;64.65;100793.02;105306;1288;59849;-89
2023/06/19 05:11:45;;;;;;;15.70;13.20;;;;;;;19.73;64.57;100794.23;105455;1288;60036;-89
2023/06/19 05:14:33;;;;;;;13.40;12.20;;;;;;;20.31;64.36;100794.86;105236;1288;73609;-90
2023/06/19 05:17:24;;;;;;;14.10;12.80;;;;;;;20.84;64.21;100801.05;105322;1288;67182;-89
2023/06/19 05:20:11;;;;;;;15.40;12.70;;;;;;;21.36;64.11;100799.13;105320;1288;71391;-89
2023/06/19 05:22:58;;;;;;;13.90;12.60;;;;;;;21.88;63.91;100801.11;105245;1288;61167;-88
2023/06/19 05:25:45;;;;;;;16.30;13.10;;;;;;;22.39;63.81;100801.36;105185;1294;61267;-89
2023/06/19 05:28:31;;;;;;;15.80;12.80;;;;;;;22.91;63.47;100796.63;105263;1288;75396;-89
2023/06/19 05:31:19;;;;;;;13.10;12.00;;;;;;;23.38;63.15;100791.79;105256;1290;67604;-89
2023/06/19 05:34:06;;;;;;;14.20;12.00;;;;;;;23.87;62.89;100792.15;105607;1288;71524;-89
2023/06/19 05:37:03;;;;;;;14.90;12.30;;;;;;;24.40;62.81;100800.24;105177;1288;61133;-90
2023/06/19 05:39:54;;;;;;;18.40;12.90;;;;;;;24.97;62.54;100809.20;105370;1288;61177;-90
2023/06/19 05:42:40;;;;;;;13.20;11.90;;;;;;;25.44;62.15;100809.36;105545;1289;73424;-90
2023/06/19 05:45:35;;;;;;;12.80;11.50;;;;;;;25.81;61.93;100814.69;105239;1289;69264;-90
2023/06/19 05:48:22;;;;;;;12.80;10.80;;;;;;;26.10;61.75;100822.89;105502;1288;72518;-90
2023/06/19 05:51:12;;;;;;;12.60;11.40;;;;;;;26.24;61.20;100821.61;105329;1289;62248;-89
2023/06/19 05:54:03;;;;;;;11.70;10.50;;;;;;;26.32;61.44;100823.30;105550;1288;59397;-90
2023/06/19 05:56:51;;;;;;;12.30;11.20;;;;;;;26.74;61.05;100830.17;105377;1288;74597;-90
2023/06/19 05:59:47;;;;;;;11.40;10.40;;;;;;;27.17;60.46;100838.30;105230;1294;71071;-90
2023/06/19 06:02:37;;;;;;;11.60;10.70;;;;;;;27.52;60.12;100840.23;105846;1289;72933;-90
2023/06/19 06:05:25;;;;;;;11.40;10.10;;;;;;;27.67;59.85;100843.55;105370;1289;61138;-90
2023/06/19 06:08:32;;;;;;;10.20;9.40;;;;;;;27.97;59.66;100846.70;105506;1288;59467;-90
2023/06/19 06:11:18;;;;;;;11.20;9.60;;;;;;;28.28;59.01;100840.46;105385;1289;74885;-90
2023/06/19 06:14:07;;;;;;;11.70;9.00;;;;;;;28.50;58.90;100843.01;105324;1289;68205;-90
2023/06/19 06:17:07;;;;;;;10.10;8.80;;;;;;;28.79;58.46;100847.30;105514;1289;71755;-91
2023/06/19 06:19:57;;;;;;;8.70;8.00;;;;;;;28.92;57.57;100848.80;105901;1288;59356;-91
2023/06/19 06:22:50;;;;;;;8.30;7.70;;;;;;;29.15;57.81;100856.87;105496;1294;61320;-91
2023/06/19 06:25:39;;;;;;;9.00;8.20;;;;;;;29.46;57.33;100861.16;105423;1290;77255;-91
2023/06/19 06:28:26;;;;;;;7.10;6.40;;;;;;;29.78;56.78;100867.08;105475;1292;69569;-90
2023/06/19 06:31:14;;;;;;;7.90;7.20;;;;;;;30.31;56.29;100863.48;105313;1295;72611;-90
2023/06/19 06:34:07;;;;;;;6.90;6.30;;;;;;;30.76;55.52;100866.78;105430;1288;59366;-90
2023/06/19 06:36:58;;;;;;;7.50;6.50;;;;;;;31.26;55.03;100870.77;105419;1289;60057;-89
2023/06/19 06:39:52;;;;;;;7.40;6.50;;;;;;;31.81;54.42;100874.44;105895;1289;74950;-88
2023/06/19 06:42:41;;;;;;;6.80;6.30;;;;;;;32.48;53.76;100872.91;105369;1289;68793;-88
2023/06/19 06:45:30;;;;;;;7.00;6.40;;;;;;;33.14;53.19;100873.26;105432;1295;72962;-88
2023/06/19 06:48:35;;;;;;;6.80;6.20;;;;;;;33.76;52.57;100879.68;105454;1290;60455;-88
2023/06/19 06:51:30;;;;;;;7.70;6.20;;;;;;;34.35;52.07;100875.56;105600;1289;60699;-88
2023/06/19 06:54:19;;;;;;;6.30;5.90;;;;;;;34.79;51.74;100869.33;105288;1290;73221;-88
2023/06/19 06:57:08;;;;;;;5.80;5.30;;;;;;;34.82;51.18;100872.49;105377;1288;67877;-91
2023/06/19 06:59:56;;;;;;;6.00;5.60;;;;;;;35.19;50.49;100870.19;105380;1288;72001;-90
2023/06/19 07:02:47;;;;;;;5.50;5.10;;;;;;;35.27;49.89;100864.10;105348;1290;61120;-90
2023/06/19 07:05:35;;;;;;;5.80;5.30;;;;;;;35.37;49.34;100860.20;105542;1287;59185;-88
2023/06/19 07:08:21;;;;;;;5.10;4.10;;;;;;;35.91;48.46;100855.45;105378;1294;73205;-90
2023/06/19 07:11:13;;;;;;;6.90;4.50;;;;;;;36.53;46.64;100856.27;105387;1289;71305;-90
2023/06/19 07:14:01;;;;;;;5.60;4.60;;;;;;;37.12;46.14;100856.05;105538;1290;70682;-90
2023/06/19 07:16:50;;;;;;;4.70;4.30;;;;;;;37.79;45.23;100859.03;105412;1290;59399;-90
2023/06/19 07:19:37;;;;;;;5.50;4.90;;;;;;;38.52;44.78;100855.91;105377;1289;61698;-90
2023/06/19 07:22:24;;;;;;;7.30;4.70;;;;;;;38.96;43.91;100857.37;105396;1289;73383;-91
2023/06/19 07:25:14;;;;;;;5.50;4.60;;;;;;;39.35;43.12;100858.61;105304;1292;67151;-90
2023/06/19 07:28:04;;;;;;;4.40;4.00;;;;;;;38.95;42.71;100860.73;105324;1289;71565;-91
2023/06/19 07:30:52;;;;;;;7.70;5.10;;;;;;;38.26;42.71;100860.15;105308;1293;61175;-88
2023/06/19 07:33:39;;;;;;;4.00;3.70;;;;;;;38.33;41.73;100864.50;105519;1293;61292;-88
2023/06/19 07:36:26;;;;;;;4.10;3.80;;;;;;;38.29;40.86;100858.65;105265;1288;73294;-90
2023/06/19 07:39:22;;;;;;;4.00;3.70;;;;;;;37.57;40.39;100861.80;105318;1288;66759;-88
2023/06/19 07:42:20;;;;;;;6.20;4.50;;;;;;;37.08;40.02;100856.88;105321;1289;73262;-89
2023/06/19 07:45:08;;;;;;;4.70;4.30;;;;;;;37.18;39.68;100859.52;105429;1288;61285;-90
2023/06/19 07:47:56;;;;;;;6.90;4.40;;;;;;;38.61;38.45;100859.96;105284;1288;61146;-90
2023/06/19 07:50:43;;;;;;;5.10;4.60;;;;;;;40.01;37.55;100858.78;105662;1289;75170;-88
2023/06/19 07:53:30;;;;;;;5.20;4.70;;;;;;;41.08;36.47;100859.92;105430;1288;67167;-90
2023/06/19 07:56:16;;;;;;;4.30;3.90;;;;;;;42.14;36.22;100862.73;105293;1292;75905;-88
2023/06/19 07:59:03;;;;;;;4.30;3.90;;;;;;;43.28;35.56;100860.46;105332;1289;61273;-88
2023/06/19 08:01:50;;;;;;;6.00;4.60;;;;;;;44.21;34.82;100867.35;105352;1287;59201;-89
2023/06/19 08:04:37;;;;;;;4.60;4.30;;;;;;;44.93;34.29;100861.66;105437;1291;73074;-89
2023/06/19 08:07:23;;;;;;;4.60;4.30;;;;;;;45.47;33.71;100860.42;105299;1289;59773;-88
2023/06/19 08:10:10;;;;;;;5.60;5.00;;;;;;;45.77;33.28;100859.24;105210;1288;63313;-89
2023/06/19 08:12:57;;;;;;;5.20;4.70;;;;;;;46.22;32.25;100861.27;105395;1288;61419;-89
2023/06/19 08:15:45;;;;;;;5.20;4.80;;;;;;;46.85;31.47;100855.60;105298;1292;59301;-89
2023/06/19 08:18:31;;;;;;;5.30;5.00;;;;;;;47.49;31.04;100852.46;105296;1292;64567;-89
2023/06/19 08:21:18;;;;;;;6.40;5.60;;;;;;;48.08;30.05;100848.82;105282;1289;61095;-89
2023/06/19 08:24:04;;;;;;;5.30;5.10;;;;;;;48.34;29.42;100848.99;105289;1296;63393;-89
2023/06/19 08:26:52;;;;;;;6.00;5.60;;;;;;;48.62;28.63;100851.16;105291;1288;61244;-89
2023/06/19 08:29:38;;;;;;;5.10;4.80;;;;;;;48.87;27.67;100852.96;105314;1289;59087;-90
2023/06/19 08:32:25;;;;;;;6.60;6.30;;;;;;;49.16;27.12;100849.59;105466;1289;66290;-89
2023/06/19 08:35:11;;;;;;;6.70;6.20;;;;;;;49.41;25.81;100851.50;105124;1296;61232;-89
2023/06/19 08:37:57;;;;;;;6.50;6.10;;;;;;;49.46;25.56;100848.90;105244;1291;62913;-90
2023/06/19 08:40:44;;;;;;;7.10;6.60;;;;;;;49.92;25.22;100851.94;105389;1288;61295;-90
2023/06/19 08:43:31;;;;;;;7.30;6.90;;;;;;;50.42;24.35;100851.41;105224;1294;61190;-89
2023/06/19 08:46:18;;;;;;;7.40;6.70;;;;;;;50.62;23.63;100848.05;105262;1292;64617;-90
2023/06/19 08:49:10;;;;;;;7.30;6.90;;;;;;;50.83;23.13;100847.81;105396;1289;60028;-89
2023/06/19 08:55:39;;;;;;;;;;;;;;;50.34;21.83;100846.89;105504;1288;61039;-89
2023/06/19 08:58:26;;;;;;;7.10;6.50;;;;;;;50.03;21.75;100841.52;105490;1288;61224;-89
2023/06/19 09:01:17;;;;;;;7.40;6.90;;;;;;;49.06;21.11;100831.40;105254;1294;64807;-90
2023/06/19 09:04:13;;;;;;;6.40;5.90;;;;;;;46.73;21.10;100819.95;105357;1289;59749;-89
2023/06/19 09:07:02;;;;;;;7.20;6.00;;;;;;;43.85;20.90;100815.86;105306;1288;72540;-89
2023/06/19 09:09:49;;;;;;;4.80;4.40;;;;;;;41.64;20.83;100815.24;105263;1288;61393;-89
2023/06/19 09:12:36;;;;;;;5.30;5.00;;;;;;;39.76;21.01;100810.77;105373;1290;61097;-88
2023/06/19 09:15:23;;;;;;;4.70;4.30;;;;;;;38.34;21.16;100802.48;105288;1288;74604;-90
2023/06/19 09:18:11;;;;;;;4.90;4.50;;;;;;;37.12;21.16;100801.48;105174;1290;67257;-90
2023/06/19 09:20:58;;;;;;;6.90;4.20;;;;;;;36.07;21.34;100801.47;105398;1288;74035;-90
2023/06/19 09:23:47;;;;;;;5.20;4.50;;;;;;;35.16;21.67;100796.35;105382;1288;61158;-90
2023/06/19 09:26:34;;;;;;;4.20;3.90;;;;;;;34.19;21.62;100788.55;105260;1288;61441;-90
2023/06/19 09:29:21;;;;;;;4.20;3.90;;;;;;;33.39;22.10;100788.95;105329;1288;75397;-90
2023/06/19 09:32:23;;;;;;;4.90;4.50;;;;;;;32.79;22.19;100791.36;105250;1288;69461;-90
2023/06/19 09:35:10;;;;;;;4.70;4.30;;;;;;;32.18;22.40;100788.26;105314;1292;74477;-90
2023/06/19 09:37:57;;;;;;;5.20;4.80;;;;;;;31.70;22.71;100789.02;105159;1289;61223;-90
2023/06/19 09:40:48;;;;;;;6.00;4.40;;;;;;;31.21;23.01;100787.56;105189;1289;59378;-89
2023/06/19 09:43:44;;;;;;;4.20;3.90;;;;;;;30.85;23.40;100784.40;105165;1291;204069;-89
2023/06/19 09:46:32;;;;;;;6.00;4.10;;;;;;;30.45;23.78;100785.12;105135;1289;67096;-90
2023/06/19 09:49:21;;;;;;;5.10;4.70;;;;;;;30.04;23.92;100781.59;101257;1291;5147510;-90
2023/06/19 09:52:08;;;;;;;4.80;4.30;;;;;;;29.81;24.40;100777.39;105138;1288;59256;-89
2023/06/19 09:54:57;;;;;;;4.80;4.30;;;;;;;29.67;24.71;100777.79;105292;1289;61651;-89
2023/06/19 09:57:45;;;;;;;4.90;4.50;;;;;;;29.53;24.80;100781.26;105398;1290;73317;-89
2023/06/19 10:00:32;;;;;;;4.90;4.50;;;;;;;29.16;24.94;100773.96;105286;1290;67216;-89
2023/06/19 10:03:19;;;;;;;4.70;4.40;;;;;;;29.01;25.34;100770.45;105315;1291;71062;-90
2023/06/19 10:06:06;;;;;;;6.20;4.40;;;;;;;28.96;25.45;100770.73;105173;1289;59708;-89
2023/06/19 10:08:52;;;;;;;5.00;4.60;;;;;;;28.90;25.74;100771.77;105156;1289;61732;-89
2023/06/19 10:11:51;;;;;;;5.40;5.00;;;;;;;28.88;26.01;100776.21;105258;1288;73411;-90
2023/06/19 10:14:47;;;;;;;4.90;4.60;;;;;;;28.81;26.19;100776.68;105167;1291;67336;-90
2023/06/19 10:17:34;;;;;;;6.50;4.40;;;;;;;28.64;26.32;100772.30;105350;1289;71569;-89
2023/06/19 10:20:31;;;;;;;4.70;4.40;;;;;;;28.51;26.62;100771.20;105137;1288;59246;-90
2023/06/19 10:23:20;;;;;;;5.50;4.40;;;;;;;28.46;26.59;100772.95;105306;1288;59850;-89
2023/06/19 10:26:07;;;;;;;4.80;4.40;;;;;;;28.46;26.94;100770.77;105106;1290;74699;-89
2023/06/19 10:28:54;;;;;;;7.10;4.60;;;;;;;28.44;27.24;100770.31;105178;1288;67246;-89
2023/06/19 10:31:40;;;;;;;4.90;4.50;;;;;;;28.45;27.33;100766.06;105187;1291;71138;-89
2023/06/19 10:34:35;;;;;;;6.30;4.40;;;;;;;28.45;27.61;100760.58;105288;1288;59731;-89
2023/06/19 10:37:32;;;;;;;6.00;5.00;;;;;;;28.45;27.87;100763.93;105353;1288;59677;-89
2023/06/19 10:40:19;;;;;;;5.50;5.00;;;;;;;28.52;27.98;100761.40;105445;1289;74644;-89
2023/06/19 10:43:05;;;;;;;6.30;4.80;;;;;;;28.53;28.17;100765.16;105355;1288;68065;-89
2023/06/19 10:45:51;;;;;;;;;;;;;;;28.49;28.17;100762.13;105231;1289;74145;-90
2023/06/19 10:48:38;;;;;;;5.00;3.90;;;;;;;28.46;28.16;100760.66;105299;1289;61304;-89
2023/06/19 10:51:24;;;;;;;4.60;4.10;;;;;;;28.48;28.37;100760.73;105413;1292;61775;-90
2023/06/19 10:54:11;;;;;;;4.40;4.10;;;;;;;28.53;28.41;100758.48;105310;1288;75389;-88
2023/06/19 10:56:57;;;;;;;;;;;;;;;28.55;28.61;100756.17;105246;1288;69136;-89
2023/06/19 10:59:44;;;;;;;4.90;4.50;;;;;;;28.56;28.63;100750.16;105345;1288;72911;-89
2023/06/19 11:02:31;;;;;;;7.20;4.00;;;;;;;28.53;28.75;100744.99;105186;1290;59799;-89
2023/06/19 11:05:22;;;;;;;4.90;4.40;;;;;;;28.55;28.87;100745.33;105323;1291;59282;-89
2023/06/19 11:08:08;;;;;;;6.70;4.50;;;;;;;28.58;29.08;100744.33;105278;1288;73437;-90
2023/06/19 11:10:56;;;;;;;4.80;4.50;;;;;;;28.66;29.23;100742.69;105418;1288;68341;-89
2023/06/19 11:13:43;;;;;;;6.70;4.20;;;;;;;28.70;29.16;100737.71;105342;1288;71628;-89
2023/06/19 11:16:29;;;;;;;5.70;4.80;;;;;;;28.75;29.30;100738.58;105440;1288;59789;-90
2023/06/19 11:19:19;;;;;;;4.60;4.00;;;;;;;28.79;29.35;100742.58;105402;1287;59253;-89
2023/06/19 11:22:07;;;;;;;5.40;4.70;;;;;;;28.85;29.52;100737.62;105404;1289;73260;-89
2023/06/19 11:24:53;;;;;;;4.50;4.10;;;;;;;28.90;29.51;100741.05;105382;1288;68654;-90
2023/06/19 11:27:39;;;;;;;4.80;4.40;;;;;;;28.95;29.46;100739.36;105190;1288;71472;-89
2023/06/19 11:30:33;;;;;;;4.40;4.00;;;;;;;29.03;29.65;100740.10;105383;1288;61172;-89
2023/06/19 11:33:22;;;;;;;5.70;4.30;;;;;;;29.10;29.24;100732.19;105202;1289;59076;-90
2023/06/19 11:36:08;;;;;;;6.10;4.40;;;;;;;29.12;29.29;100734.46;105190;1290;74716;-89
2023/06/19 11:38:56;;;;;;;4.60;4.10;;;;;;;29.19;29.63;100731.65;105196;1293;67266;-90
2023/06/19 11:41:46;;;;;;;5.20;4.80;;;;;;;29.32;29.74;100733.30;105214;1291;71394;-90
2023/06/19 11:44:32;;;;;;;5.10;4.70;;;;;;;29.32;29.52;100726.84;105105;1292;61066;-90
2023/06/19 11:47:20;;;;;;;4.50;4.10;;;;;;;29.33;29.64;100723.39;105215;1289;61439;-90
2023/06/19 11:50:08;;;;;;;4.90;4.50;;;;;;;29.33;29.39;100726.95;105115;1292;74999;-90
2023/06/19 11:52:57;;;;;;;4.50;4.10;;;;;;;29.35;29.59;100724.88;105341;1289;68628;-90
2023/06/19 11:55:43;;;;;;;4.90;4.50;;;;;;;29.34;29.87;100722.07;105144;1293;72499;-90
2023/06/19 11:58:30;;;;;;;4.80;4.50;;;;;;;29.31;29.61;100721.96;105154;1289;61179;-90
2023/06/19 12:01:16;;;;;;;5.10;4.60;;;;;;;29.17;29.65;100722.60;105313;1289;60020;-90
2023/06/19 12:04:03;;;;;;;4.70;4.30;;;;;;;29.04;29.86;100719.75;105219;1292;75087;-90
2023/06/19 12:06:49;;;;;;;4.70;4.40;;;;;;;29.03;29.99;100718.06;105130;1289;67353;-90
2023/06/19 12:09:37;;;;;;;10.40;5.00;;;;;;;29.02;30.01;100715.66;105010;1293;71541;-90
2023/06/19 12:12:25;;;;;;;8.40;4.30;;;;;;;29.02;29.95;100716.11;105253;1289;61287;-89
2023/06/19 12:15:12;;;;;;;11.20;4.60;;;;;;;28.98;30.10;100717.45;105112;1289;61103;-89
2023/06/19 12:17:58;;;;;;;;;;;;;;;28.95;30.16;100720.23;105062;1288;74894;-90
2023/06/19 12:20:45;;;;;;;5.80;4.60;;;;;;;28.87;30.00;100719.91;105147;1291;67277;-90
2023/06/19 12:23:31;;;;;;;;;;;;;;;28.81;30.29;100728.02;105165;1288;72998;-90
2023/06/19 12:26:20;;;;;;;5.10;4.70;;;;;;;28.80;30.50;100726.71;105097;1291;61975;-90
2023/06/19 12:29:07;;;;;;;8.90;4.90;;;;;;;28.78;30.47;100725.45;105251;1289;61923;-90
2023/06/19 12:32:01;;;;;;;9.90;4.40;;;;;;;28.77;30.32;100718.70;104833;1289;247062;-90
2023/06/19 12:34:47;;;;;;;4.70;4.30;;;;;;;28.72;30.32;100718.77;105235;1291;68570;-90
2023/06/19 12:37:36;;;;;;;5.10;4.70;;;;;;;28.76;30.45;100717.13;105097;1289;71386;-90
2023/06/19 12:40:24;;;;;;;6.90;4.60;;;;;;;28.88;30.44;100710.24;105211;1291;59184;-91
2023/06/19 12:43:51;;;;;;;5.70;4.70;;;;;;;28.97;30.46;100708.45;105186;1288;61662;-91
2023/06/19 12:47:37;;;;;;;6.20;4.30;;;;;;;29.02;30.27;100703.83;105346;1290;77228;-90
2023/06/19 12:51:05;;;;;;;4.70;4.30;;;;;;;29.06;30.34;100697.91;105333;1290;68548;-90
2023/06/19 12:56:55;;;;;;;4.30;4.00;;;;;;;28.97;30.41;100700.33;105560;1286;59443;-90
2023/06/19 12:59:42;;;;;;;7.10;4.30;;;;;;;28.91;30.35;100701.23;105319;1291;61171;-89
2023/06/19 13:03:09;;;;;;;4.50;4.10;;;;;;;28.84;30.53;100701.71;106228;1288;73911;-93
2023/06/19 13:06:56;;;;;;;6.00;4.20;;;;;;;28.74;30.63;100699.36;105643;1291;67350;-90
2023/06/19 13:10:43;;;;;;;9.00;4.10;;;;;;;28.68;30.61;100700.42;105664;1290;73495;-91
2023/06/19 13:14:11;;;;;;;4.70;4.00;;;;;;;28.67;30.36;100702.89;105565;1288;61294;-90
2023/06/19 13:17:53;;;;;;;4.80;4.20;;;;;;;28.64;30.48;100704.59;105659;1288;59842;-91
2023/06/19 13:21:00;;;;;;;4.30;4.00;;;;;;;28.59;30.45;100698.98;105634;1287;73325;-90
2023/06/19 13:24:27;;;;;;;4.20;3.90;;;;;;;28.58;30.31;100695.18;105452;1287;69356;-91
2023/06/19 13:27:53;;;;;;;6.10;4.20;;;;;;;28.58;30.38;100689.71;105971;1286;72575;-90
2023/06/19 13:30:57;;;;;;;6.90;4.00;;;;;;;28.61;30.39;100687.42;105536;1288;61387;-90
2023/06/19 13:34:32;;;;;;;4.00;3.70;;;;;;;28.68;30.45;100683.59;105504;1288;61414;-90
2023/06/19 13:38:18;;;;;;;4.20;3.80;;;;;;;28.75;30.40;100685.11;105163;1292;73157;-90
2023/06/19 13:42:05;;;;;;;4.20;3.90;;;;;;;28.84;30.52;100687.91;105148;1290;67701;-91
2023/06/19 13:45:51;;;;;;;5.30;3.90;;;;;;;28.91;30.40;100683.98;100935;1293;5486648;-91
2023/06/19 13:49:46;;;;;;;4.70;3.80;;;;;;;28.92;30.38;100683.88;104960;1294;59446;-91